createdAt,value
2022-12-17T00:00:04.632Z,38.20
2022-12-17T00:05:27.212Z,41.73
2022-12-17T00:10:48.058Z,37.77
2022-12-17T00:16:11.870Z,41.17
2022-12-17T00:21:34.235Z,40.37
2022-12-17T00:26:54.829Z,38.00
2022-12-17T00:32:16.770Z,37.40
2022-12-17T00:37:37.909Z,38.47
2022-12-17T00:42:58.731Z,34.93
2022-12-17T00:48:19.348Z,40.53
2022-12-17T00:53:41.846Z,40.97
2022-12-17T00:59:02.569Z,35.33
2022-12-17T01:04:23.766Z,37.87
2022-12-17T01:09:45.827Z,39.20
2022-12-17T01:15:06.545Z,41.93
2022-12-17T01:20:27.555Z,39.40
2022-12-17T01:25:49.886Z,34.87
2022-12-17T01:31:10.700Z,43.13
2022-12-17T01:36:49.418Z,45.73
2022-12-17T01:42:12.350Z,41.67
2022-12-17T01:47:32.722Z,37.70
2022-12-17T01:52:53.229Z,38.00
2022-12-17T01:58:15.010Z,42.93
2022-12-17T02:03:37.767Z,37.20
2022-12-17T02:09:09.278Z,34.67
2022-12-17T02:14:38.342Z,36.77
2022-12-17T02:20:11.460Z,36.73
2022-12-17T02:25:41.214Z,32.93
2022-12-17T02:31:03.386Z,36.40
2022-12-17T02:36:25.632Z,39.50
2022-12-17T02:41:48.378Z,37.30
2022-12-17T02:47:13.324Z,41.37
2022-12-17T02:52:38.785Z,35.40
2022-12-17T02:57:59.427Z,36.43
2022-12-17T03:03:21.552Z,42.70
2022-12-17T03:08:42.514Z,36.30
2022-12-17T03:14:03.416Z,36.13
2022-12-17T03:19:25.575Z,35.37
2022-12-17T03:24:46.749Z,39.83
2022-12-17T03:30:07.373Z,36.73
2022-12-17T03:35:29.391Z,38.90
2022-12-17T03:40:49.898Z,40.60
2022-12-17T03:46:11.776Z,34.60
2022-12-17T03:51:33.991Z,33.63
2022-12-17T03:56:54.495Z,38.37
2022-12-17T04:02:15.797Z,35.27
2022-12-17T04:07:37.736Z,38.67
2022-12-17T04:12:58.239Z,34.10
2022-12-17T04:18:18.929Z,35.77
2022-12-17T04:23:41.056Z,35.67
2022-12-17T04:29:01.614Z,35.73
2022-12-17T04:34:22.364Z,42.57
2022-12-17T04:39:44.405Z,45.83
2022-12-17T04:45:05.166Z,43.43
2022-12-17T04:50:26.094Z,50.63
2022-12-17T04:55:48.279Z,56.03
2022-12-17T05:01:10.651Z,56.70
2022-12-17T05:06:31.039Z,59.80
2022-12-17T05:11:53.401Z,47.03
2022-12-17T05:17:13.964Z,41.33
2022-12-17T05:22:34.504Z,36.03
2022-12-17T05:27:56.633Z,42.80
2022-12-17T05:33:18.223Z,36.83
2022-12-17T05:38:38.890Z,40.60
2022-12-17T05:44:00.611Z,36.93
2022-12-17T05:49:21.498Z,36.60
2022-12-17T05:54:42.319Z,36.57
2022-12-17T06:00:04.347Z,33.80
2022-12-17T06:05:25.771Z,38.23
2022-12-17T06:10:46.757Z,32.63
2022-12-17T06:16:09.716Z,33.50
2022-12-17T06:21:30.328Z,33.93
2022-12-17T06:26:51.143Z,31.27
2022-12-17T06:32:13.224Z,32.10
2022-12-17T06:37:33.815Z,34.27
2022-12-17T06:42:54.225Z,32.40
2022-12-17T06:48:21.675Z,35.43
2022-12-17T06:53:38.929Z,37.03
2022-12-17T06:59:14.323Z,33.80
2022-12-17T07:04:36.833Z,37.33
2022-12-17T07:09:57.324Z,37.57
2022-12-17T07:15:17.694Z,43.87
2022-12-17T07:20:39.546Z,39.27
2022-12-17T07:26:00.731Z,40.30
2022-12-17T07:31:21.245Z,40.53
2022-12-17T07:36:43.625Z,46.47
2022-12-17T07:42:04.139Z,45.70
2022-12-17T07:47:24.960Z,44.90
2022-12-17T07:53:01.863Z,49.17
2022-12-17T07:58:24.931Z,51.27
2022-12-17T08:03:46.513Z,53.03
2022-12-17T08:09:08.509Z,54.27
2022-12-17T08:14:29.266Z,51.73
2022-12-17T08:19:49.842Z,57.23
2022-12-17T08:25:12.535Z,59.77
2022-12-17T08:30:33.422Z,51.03
2022-12-17T08:35:53.950Z,59.53
2022-12-17T08:41:20.088Z,59.63
2022-12-17T08:46:41.422Z,64.80
2022-12-17T08:52:02.343Z,61.00
2022-12-17T08:57:31.903Z,51.80
2022-12-17T09:02:55.982Z,56.57
2022-12-17T09:08:22.804Z,55.23
2022-12-17T09:13:45.190Z,59.50
2022-12-17T09:19:08.797Z,50.97
2022-12-17T09:24:32.277Z,54.57
2022-12-17T09:29:55.312Z,61.67
2022-12-17T09:35:16.386Z,55.67
2022-12-17T09:40:47.355Z,47.67
2022-12-17T09:46:16.536Z,50.20
2022-12-17T09:51:42.186Z,52.50
2022-12-17T09:57:03.310Z,56.00
2022-12-17T10:02:31.792Z,55.67
2022-12-17T10:07:57.437Z,54.17
2022-12-17T10:13:20.159Z,54.20
2022-12-17T10:18:43.320Z,50.93
2022-12-17T10:24:05.756Z,55.80
2022-12-17T10:29:48.120Z,64.47
2022-12-17T10:35:29.103Z,56.97
2022-12-17T10:40:54.398Z,61.83
2022-12-17T10:46:16.588Z,63.27
2022-12-17T10:51:48.024Z,53.80
2022-12-17T10:57:21.681Z,47.07
2022-12-17T11:02:51.069Z,67.67
2022-12-17T11:08:32.762Z,62.10
2022-12-17T11:14:01.984Z,63.90
2022-12-17T11:19:48.022Z,72.17
2022-12-17T11:25:26.045Z,63.93
2022-12-17T11:31:02.330Z,61.27
2022-12-17T11:36:38.702Z,68.07
2022-12-17T11:42:18.566Z,65.10
2022-12-17T11:47:48.430Z,60.23
2022-12-17T11:53:26.010Z,62.30
2022-12-17T11:58:58.564Z,60.07
2022-12-17T12:04:35.700Z,66.57
2022-12-17T12:10:07.067Z,65.50
2022-12-17T12:15:46.828Z,54.93
2022-12-17T12:21:28.417Z,54.20
2022-12-17T12:27:07.425Z,52.20
2022-12-17T12:32:56.922Z,50.27
2022-12-17T12:38:25.240Z,51.77
2022-12-17T12:43:48.711Z,53.30
2022-12-17T12:49:28.692Z,54.07
2022-12-17T12:54:51.260Z,53.70
2022-12-17T13:05:40.485Z,60.00
2022-12-17T13:10:47.903Z,49.57
2022-12-17T13:15:58.541Z,49.83
2022-12-17T13:21:06.881Z,50.87
2022-12-17T13:26:25.411Z,47.83
2022-12-17T13:31:38.261Z,44.70
2022-12-17T13:36:54.407Z,41.47
2022-12-17T13:42:03.029Z,45.27
2022-12-17T13:47:08.379Z,58.10
2022-12-17T13:52:23.495Z,48.83
2022-12-17T13:57:27.977Z,56.10
2022-12-17T14:02:34.449Z,43.93
2022-12-17T14:07:41.953Z,43.53
2022-12-17T14:12:55.076Z,41.43
2022-12-17T14:18:04.010Z,51.20
2022-12-17T14:23:16.928Z,55.27
2022-12-17T14:28:26.411Z,53.17
2022-12-17T14:33:37.524Z,49.27
2022-12-17T14:38:56.464Z,54.43
2022-12-17T14:44:05.033Z,48.37
2022-12-17T14:49:20.387Z,46.50
2022-12-17T14:54:34.297Z,44.77
2022-12-17T14:59:44.335Z,54.83
2022-12-17T15:05:07.391Z,54.10
2022-12-17T15:10:22.652Z,53.43
2022-12-17T15:15:26.854Z,52.83
2022-12-17T15:20:36.630Z,51.43
2022-12-17T15:25:49.315Z,59.83
2022-12-17T15:30:57.567Z,59.73
2022-12-17T15:36:03.677Z,67.17
2022-12-17T15:41:30.733Z,70.97
2022-12-17T15:46:37.538Z,68.67
2022-12-17T15:51:41.801Z,73.67
2022-12-17T15:56:56.847Z,65.83
2022-12-17T16:02:01.276Z,71.03
2022-12-17T16:07:08.263Z,69.27
2022-12-17T16:12:16.598Z,72.70
2022-12-17T16:17:26.233Z,70.43
2022-12-17T16:22:34.180Z,70.50
2022-12-17T16:27:42.007Z,61.73
2022-12-17T16:32:47.764Z,71.10
2022-12-17T16:37:58.338Z,60.90
2022-12-17T16:43:12.046Z,66.97
2022-12-17T16:48:21.033Z,71.67
2022-12-17T16:53:32.607Z,65.77
2022-12-17T16:58:43.616Z,68.47
2022-12-17T17:03:50.114Z,67.57
2022-12-17T17:08:58.778Z,64.23
2022-12-17T17:14:14.546Z,82.93
2022-12-17T17:19:30.373Z,77.13
2022-12-17T17:24:36.370Z,80.23
2022-12-17T17:29:45.170Z,73.10
2022-12-17T17:34:53.331Z,87.40
2022-12-17T17:40:12.280Z,89.63
2022-12-17T17:45:23.808Z,77.37
2022-12-17T17:50:36.324Z,75.13
2022-12-17T17:55:45.636Z,84.80
2022-12-17T18:01:08.149Z,101.43
2022-12-17T18:06:16.783Z,82.27
2022-12-17T18:11:24.341Z,109.97
2022-12-17T18:16:35.123Z,108.20
2022-12-17T18:21:40.665Z,193.50
2022-12-17T18:26:57.279Z,181.73
2022-12-17T18:32:06.243Z,141.03
2022-12-17T18:37:11.437Z,67.77
2022-12-17T18:42:37.089Z,158.00
2022-12-17T18:47:45.131Z,205.93
2022-12-17T18:52:54.361Z,131.80
2022-12-17T18:57:58.989Z,136.83
2022-12-17T19:03:07.776Z,95.97
2022-12-17T19:08:16.501Z,88.53
2022-12-17T19:13:27.481Z,155.70
2022-12-17T19:18:33.499Z,192.77
2022-12-17T19:23:40.917Z,283.73
2022-12-17T19:28:48.089Z,155.30
2022-12-17T19:34:02.894Z,160.53
2022-12-17T19:39:14.469Z,97.10
2022-12-17T19:44:21.527Z,83.23
2022-12-17T19:49:35.834Z,199.03
2022-12-17T19:54:54.039Z,196.00
2022-12-17T20:00:00.415Z,170.80
2022-12-17T20:05:14.481Z,115.50
2022-12-17T20:10:21.038Z,74.33
2022-12-17T20:15:40.248Z,136.60
2022-12-17T20:20:53.192Z,260.30
2022-12-17T20:26:07.825Z,81.90
2022-12-17T20:31:21.203Z,144.33
2022-12-17T20:36:33.522Z,66.73
2022-12-17T20:41:49.154Z,112.90
2022-12-17T20:46:55.170Z,79.07
2022-12-17T20:52:01.459Z,105.43
2022-12-17T20:57:19.018Z,146.27
2022-12-17T21:02:25.550Z,118.33
2022-12-17T21:07:37.734Z,110.47
2022-12-17T21:12:58.849Z,156.60
2022-12-17T21:18:03.024Z,84.53
2022-12-17T21:23:13.840Z,68.77
2022-12-17T21:28:26.503Z,118.03
2022-12-17T21:33:32.322Z,75.43
2022-12-17T21:38:49.642Z,61.50
2022-12-17T21:43:58.737Z,138.20
2022-12-17T21:49:06.034Z,60.00
2022-12-17T21:54:20.261Z,84.23
2022-12-17T21:59:34.580Z,64.97
2022-12-17T22:04:39.880Z,55.57
2022-12-17T22:09:59.962Z,59.73
2022-12-17T22:15:13.417Z,57.63
2022-12-17T22:20:27.253Z,51.67
2022-12-17T22:25:40.949Z,54.10
2022-12-17T22:31:02.940Z,52.50
2022-12-17T22:38:22.066Z,51.27
2022-12-17T22:44:43.118Z,53.03
2022-12-17T22:47:24.403Z,54.63
2022-12-17T22:52:36.486Z,51.93
2022-12-17T22:57:47.372Z,55.37
2022-12-17T23:02:57.885Z,57.67
2022-12-17T23:08:05.115Z,57.53
2022-12-17T23:13:18.045Z,52.73
2022-12-17T23:18:36.417Z,52.50
2022-12-17T23:23:45.679Z,54.10
2022-12-17T23:29:06.990Z,52.43
2022-12-17T23:34:18.619Z,52.33
2022-12-17T23:39:25.782Z,50.93
2022-12-17T23:44:44.058Z,50.60
2022-12-17T23:50:02.733Z,50.10
2022-12-17T23:55:12.079Z,49.63
